KSCK/SCK METAR and TAF weather

Enter ICAO airport designator
Station Type Date Time Source
KSCK METAR 2022/06/27 16:55 UTC NOAA

KSCK 271655Z 00000KT 10SM CLR 27/11 A3002 RMK AO2 SLP166 T02670111 $


Station Type Date Time Source
KSCK Decoded METAR 2022/06/27 16:55 UTC NOAA

STOCKTON METROPOLITAN AIRPORT , CA, United States (KSCK) 37-54N 121-14W 10M
Jun 27, 2022 - 12:55 PM EDT / 2022.06.27 1655 UTC
Wind: Calm:0
Visibility: 10 mile(s):0
Sky conditions: clear
Temperature: 80.1 F (26.7 C)
Dew Point: 52.0 F (11.1 C)
Relative Humidity: 37%
Pressure (altimeter): 30.02 in. Hg (1016 hPa)
ob: KSCK 271655Z 00000KT 10SM CLR 27/11 A3002 RMK AO2 SLP166 T02670111
cycle: 17

Station Type Date Time Source
KSCK TAF 2022/06/27 18:30 UTC NOAA

TAF KSCK 271728Z 2718/2818 VRB03KT P6SM SKC
FM272100 30010KT P6SM SKC
FM280000 28013KT P6SM SKC
FM280500 28008KT P6SM SKC

Example: see airport list